Airfield :
LOGIN :

Register | Disclaimer

   EN    FR    IT 

 










Legend :    VFR   Marginal VFR   IFR   Intensive IFR   Very Intensive IFR
Visi :
Ceiling :
>= 8 km
>= 3000ft
5 to 8 km
1000 to 3000 ft
1500m to 5 km
500 to 1000 ft
800 to 1500m
200 to 500 ft
< 800m
< 200 ft
Symbols :   Thunderstorms  Fog  Heavy snow  Heavy precipitations  Wind > 20 kt
SIGMETs :     Misc.  Thunderstorms  Icing  Turbulence  Mountain Waves  Volcanic Ashes







- Airport Elevation : 375 ft
- IATA code : MST


EHBK - Maastricht Aachen

CURRENT METAR :
  • 182155Z AUTO 35006KT 320V020 9999 NCD 19/12 Q1018

EXPIRED METARs :
  • 182125Z AUTO 33006KT 9999 NCD 19/11 Q1018 NOSIG
  • 182055Z AUTO 33004KT 290V360 9999 NCD 20/10 Q1018 NOSIG
  • 182025Z AUTO 34003KT 310V010 9999 NSC 21/10 Q1018 NOSIG
  • 181955Z AUTO 29004KT 250V330 9999 NCD 21/10 Q1017 NOSIG
  • 181925Z AUTO 27003KT 230V330 9999 NCD 23/10 Q1017 NOSIG

TAF TAF EHBK
Valid from the 18 at 18:00 until the 20 at 00:00 UTC


181642Z 1818/1924 VRB03KT CAVOK
No reported NOTAMs for that airfield.



MET'MAP, your aeronautical weather chart ! - Copyright ORBIFLY December 2007 - Disclaimer

ORBIFLY MET'MAP TEAM :

Programming & Development : Alexandra Zaïnal
Concept & Development : Baudouin d'Aumeries
Co-Development & Prog : Marc-Olivier Méhu
Technical & hardware support : Manuel Goepfert

Contact : metmap@orbifly.com




SOURCES & CREDITS :

   NOAA